Terminal Aerodrome Forecast
Issued by NWS

Home | Current Version | Previous Version | Text Only | Print | Product List | Glossary On
Versions: 1 2 3 4 5 6 7 8 9 10 11 12 13
000
FTUS42 TJSJ 191700
TAFJPS
TAF
TJPS 191734Z 1918/2018 16010KT P6SM VCTS SCT030CB
     FM192330 09007KT P6SM FEW030
     FM201500 13012KT P6SM FEW030
      AMD NOT SKED TIL 200300=

USA.gov is the U.S. government's official web portal to all federal, state and local government web resources and services.